createdAt,value
2023-05-13T00:01:36.666Z,100.00
2023-05-13T00:05:39.561Z,100.00
2023-05-13T00:09:41.125Z,100.00
2023-05-13T00:13:42.648Z,100.00
2023-05-13T00:17:44.180Z,100.00
2023-05-13T00:21:47.212Z,100.00
2023-05-13T00:25:48.751Z,100.00
2023-05-13T00:29:50.275Z,100.00
2023-05-13T00:33:51.763Z,100.00
2023-05-13T00:37:54.586Z,100.00
2023-05-13T00:41:56.169Z,100.00
2023-05-13T00:45:58.668Z,99.58
2023-05-13T00:50:00.212Z,99.82
2023-05-13T00:54:04.263Z,100.00
2023-05-13T00:58:05.747Z,100.00
2023-05-13T01:02:14.128Z,100.00
2023-05-13T01:06:21.202Z,100.00
2023-05-13T01:10:34.503Z,100.00
2023-05-13T01:14:40.030Z,100.00
2023-05-13T01:18:46.022Z,100.00
2023-05-13T01:22:48.895Z,100.00
2023-05-13T01:26:50.638Z,100.00
2023-05-13T01:30:52.501Z,100.00
2023-05-13T01:34:55.206Z,100.00
2023-05-13T01:38:59.658Z,100.00
2023-05-13T01:43:01.247Z,100.00
2023-05-13T01:47:03.066Z,100.00
2023-05-13T01:51:04.831Z,100.00
2023-05-13T01:55:08.478Z,100.00
2023-05-13T01:59:10.507Z,100.00
2023-05-13T02:03:12.111Z,99.27
2023-05-13T02:07:13.654Z,99.77
2023-05-13T02:11:16.526Z,99.33
2023-05-13T02:15:18.109Z,100.00
2023-05-13T02:19:19.615Z,100.00
2023-05-13T02:23:21.112Z,99.68
2023-05-13T02:27:23.951Z,100.00
2023-05-13T02:31:25.566Z,100.00
2023-05-13T02:35:27.303Z,99.74
2023-05-13T02:39:28.782Z,99.64
2023-05-13T02:43:31.626Z,99.51
2023-05-13T02:47:33.129Z,99.44
2023-05-13T02:51:34.647Z,99.46
2023-05-13T02:55:36.216Z,99.16
2023-05-13T02:59:39.042Z,99.05
2023-05-13T03:03:40.657Z,98.85
2023-05-13T03:07:42.291Z,99.21
2023-05-13T03:11:43.818Z,98.66
2023-05-13T03:15:46.700Z,98.83
2023-05-13T03:19:48.226Z,98.43
2023-05-13T03:23:49.732Z,98.38
2023-05-13T03:27:51.252Z,97.90
2023-05-13T03:31:54.357Z,98.98
2023-05-13T03:35:55.744Z,98.32
2023-05-13T03:39:57.422Z,98.96
2023-05-13T03:43:58.923Z,99.13
2023-05-13T03:48:01.765Z,99.11
2023-05-13T03:52:03.583Z,98.47
2023-05-13T03:56:05.683Z,98.50
2023-05-13T04:00:08.709Z,97.43
2023-05-13T04:04:11.550Z,98.01
2023-05-13T04:08:13.128Z,98.33
2023-05-13T04:12:14.677Z,97.95
2023-05-13T04:16:16.291Z,98.48
2023-05-13T04:20:19.612Z,98.23
2023-05-13T04:24:21.426Z,97.61
2023-05-13T04:28:22.956Z,98.19
2023-05-13T04:36:35.005Z,97.58
2023-05-13T04:40:36.509Z,97.77
2023-05-13T04:44:38.044Z,98.07
2023-05-13T04:48:39.582Z,97.44
2023-05-13T04:52:42.885Z,97.54
2023-05-13T04:56:44.435Z,97.93
2023-05-13T05:00:45.968Z,97.47
2023-05-13T05:04:47.487Z,97.26
2023-05-13T05:08:50.364Z,96.85
2023-05-13T05:12:51.880Z,96.61
2023-05-13T05:16:53.452Z,97.11
2023-05-13T05:20:55.006Z,96.36
2023-05-13T05:24:57.886Z,96.86
2023-05-13T05:28:59.480Z,95.90
2023-05-13T05:33:01.072Z,95.40
2023-05-13T05:37:02.640Z,95.28
2023-05-13T05:41:05.686Z,94.59
2023-05-13T05:45:08.228Z,93.88
2023-05-13T05:49:09.813Z,93.06
2023-05-13T05:53:11.328Z,91.62
2023-05-13T05:57:14.204Z,92.52
2023-05-13T06:01:15.713Z,91.68
2023-05-13T06:05:17.441Z,92.53
2023-05-13T06:09:19.009Z,92.43
2023-05-13T06:13:21.895Z,91.33
2023-05-13T06:17:23.409Z,91.20
2023-05-13T06:21:24.943Z,90.70
2023-05-13T06:25:26.663Z,90.13
2023-05-13T06:29:29.598Z,88.98
2023-05-13T06:33:31.214Z,88.29
2023-05-13T06:37:32.806Z,88.01
2023-05-13T06:41:34.707Z,88.28
2023-05-13T06:45:37.578Z,88.60
2023-05-13T06:49:39.098Z,87.56
2023-05-13T06:53:40.616Z,87.49
2023-05-13T06:57:43.523Z,88.67
2023-05-13T07:01:46.599Z,88.18
2023-05-13T07:05:48.124Z,88.16
2023-05-13T07:09:49.690Z,87.50
2023-05-13T07:13:51.234Z,86.68
2023-05-13T07:17:54.209Z,86.71
2023-05-13T07:21:55.804Z,86.12
2023-05-13T07:25:57.330Z,84.57
2023-05-13T07:29:58.854Z,82.98
2023-05-13T07:34:01.752Z,84.29
2023-05-13T07:38:03.450Z,83.25
2023-05-13T07:42:05.850Z,82.86
2023-05-13T07:46:07.457Z,81.80
2023-05-13T07:50:10.476Z,82.42
2023-05-13T07:54:11.992Z,81.80
2023-05-13T07:58:13.586Z,80.87
2023-05-13T08:02:15.150Z,82.50
2023-05-13T08:06:18.030Z,82.70
2023-05-13T08:10:19.553Z,82.33
2023-05-13T08:14:21.279Z,83.37
2023-05-13T08:18:22.857Z,80.73
2023-05-13T08:22:26.522Z,79.32
2023-05-13T08:26:28.070Z,77.37
2023-05-13T08:30:29.622Z,75.48
2023-05-13T08:34:31.196Z,74.64
2023-05-13T08:38:34.599Z,74.55
2023-05-13T08:42:38.732Z,72.53
2023-05-13T08:46:44.060Z,74.33
2023-05-13T08:50:46.167Z,71.14
2023-05-13T08:54:49.349Z,73.31
2023-05-13T08:58:50.756Z,74.38
2023-05-13T09:02:52.354Z,73.20
2023-05-13T09:06:53.922Z,74.56
2023-05-13T09:10:57.491Z,73.70
2023-05-13T09:14:59.026Z,71.77
2023-05-13T09:19:03.511Z,71.34
2023-05-13T09:23:06.854Z,73.92
2023-05-13T09:27:09.590Z,74.25
2023-05-13T09:31:11.420Z,73.43
2023-05-13T09:35:15.296Z,74.87
2023-05-13T09:39:16.850Z,73.58
2023-05-13T09:43:21.501Z,73.84
2023-05-13T09:47:24.416Z,74.43
2023-05-13T09:51:26.424Z,74.07
2023-05-13T09:55:29.002Z,74.43
2023-05-13T09:59:33.131Z,74.20
2023-05-13T10:03:34.871Z,75.19
2023-05-13T10:07:38.132Z,74.68
2023-05-13T10:11:43.953Z,74.22
2023-05-13T10:15:50.537Z,75.68
2023-05-13T10:19:53.742Z,75.00
2023-05-13T10:23:55.922Z,76.29
2023-05-13T10:27:57.557Z,73.95
2023-05-13T10:32:01.812Z,75.26
2023-05-13T10:36:16.332Z,74.76
2023-05-13T10:40:30.975Z,74.61
2023-05-13T10:44:33.474Z,76.43
2023-05-13T10:48:40.802Z,76.60
2023-05-13T10:52:43.508Z,76.92
2023-05-13T10:56:45.085Z,76.55
2023-05-13T11:00:46.609Z,75.70
2023-05-13T11:04:59.463Z,74.48
2023-05-13T11:09:01.073Z,74.05
2023-05-13T11:13:21.406Z,73.28
2023-05-13T11:17:23.034Z,73.36
2023-05-13T11:21:33.339Z,68.51
2023-05-13T11:25:34.882Z,68.23
2023-05-13T11:29:37.018Z,66.75
2023-05-13T11:34:05.723Z,68.20
2023-05-13T11:38:09.015Z,66.75
2023-05-13T11:42:11.333Z,67.53
2023-05-13T11:46:20.782Z,68.20
2023-05-13T11:50:26.304Z,68.24
2023-05-13T11:54:29.685Z,67.25
2023-05-13T11:58:31.184Z,66.78
2023-05-13T12:02:34.573Z,68.15
2023-05-13T12:06:43.467Z,66.32
2023-05-13T12:10:46.341Z,65.22
2023-05-13T12:14:48.622Z,66.63
2023-05-13T12:18:55.946Z,64.72
2023-05-13T12:23:00.084Z,67.57
2023-05-13T12:27:08.663Z,68.29
2023-05-13T12:31:16.605Z,68.31
2023-05-13T12:35:18.153Z,67.53
2023-05-13T12:39:20.628Z,67.30
2023-05-13T12:43:23.571Z,67.82
2023-05-13T12:47:25.132Z,67.09
2023-05-13T12:51:27.442Z,66.15
2023-05-13T12:55:29.054Z,65.81
2023-05-13T12:59:31.977Z,66.01
2023-05-13T13:03:33.576Z,66.69
2023-05-13T13:07:35.137Z,67.24
2023-05-13T13:11:36.662Z,65.95
2023-05-13T13:15:39.530Z,67.00
2023-05-13T13:19:41.153Z,68.05
2023-05-13T13:23:42.673Z,67.70
2023-05-13T13:27:44.203Z,65.28
2023-05-13T13:31:47.141Z,65.91
2023-05-13T13:35:49.481Z,65.65
2023-05-13T13:39:51.057Z,66.41
2023-05-13T13:43:52.602Z,67.04
2023-05-13T13:47:55.621Z,68.97
2023-05-13T13:51:57.100Z,69.96
2023-05-13T13:55:58.650Z,69.22
2023-05-13T14:00:00.181Z,69.90
2023-05-13T14:04:13.992Z,69.40
2023-05-13T14:08:15.534Z,68.51
2023-05-13T14:12:17.357Z,69.19
2023-05-13T14:16:18.960Z,69.42
2023-05-13T14:20:22.257Z,67.91
2023-05-13T14:24:24.282Z,69.23
2023-05-13T14:28:25.833Z,67.93
2023-05-13T14:32:27.355Z,66.55
2023-05-13T14:36:30.699Z,67.42
2023-05-13T14:40:32.229Z,68.26
2023-05-13T14:44:33.748Z,65.52
2023-05-13T14:48:35.276Z,67.43
2023-05-13T14:52:38.145Z,67.26
2023-05-13T14:56:39.685Z,67.11
2023-05-13T15:00:41.247Z,66.75
2023-05-13T15:04:42.855Z,66.87
2023-05-13T15:08:45.754Z,67.60
2023-05-13T15:12:47.280Z,68.15
2023-05-13T15:16:48.858Z,66.89
2023-05-13T15:20:50.440Z,65.97
2023-05-13T15:24:54.399Z,66.64
2023-05-13T15:28:55.958Z,67.13
2023-05-13T15:32:57.567Z,65.76
2023-05-13T15:36:59.096Z,65.67
2023-05-13T15:41:04.048Z,66.64
2023-05-13T15:45:06.896Z,66.49
2023-05-13T15:49:08.421Z,65.57
2023-05-13T15:53:10.031Z,64.78
2023-05-13T15:57:12.911Z,65.60
2023-05-13T16:01:14.461Z,64.33
2023-05-13T16:05:16.017Z,63.92
2023-05-13T16:09:17.540Z,66.11
2023-05-13T16:13:21.148Z,67.13
2023-05-13T16:17:22.702Z,67.88
2023-05-13T16:21:24.219Z,68.59
2023-05-13T16:25:26.005Z,68.56
2023-05-13T16:29:28.878Z,69.42
2023-05-13T16:33:30.437Z,70.23
2023-05-13T16:37:31.977Z,69.74
2023-05-13T16:41:33.665Z,68.04
2023-05-13T16:45:36.630Z,68.63
2023-05-13T16:49:38.288Z,69.37
2023-05-13T16:53:39.858Z,70.28
2023-05-13T16:57:41.389Z,70.98
2023-05-13T17:01:44.292Z,70.61
2023-05-13T17:05:45.817Z,71.38
2023-05-13T17:09:47.349Z,69.85
2023-05-13T17:13:48.877Z,70.43
2023-05-13T17:17:51.954Z,70.18
2023-05-13T17:21:53.503Z,70.83
2023-05-13T17:25:55.025Z,72.29
2023-05-13T17:29:56.600Z,72.17
2023-05-13T17:33:59.485Z,72.84
2023-05-13T17:38:01.019Z,72.23
2023-05-13T17:42:02.537Z,72.36
2023-05-13T17:46:04.412Z,73.23
2023-05-13T17:50:08.049Z,73.03
2023-05-13T17:54:09.593Z,73.22
2023-05-13T17:58:11.115Z,74.92
2023-05-13T18:02:12.829Z,75.73
2023-05-13T18:06:15.932Z,76.02
2023-05-13T18:10:17.343Z,76.58
2023-05-13T18:14:18.899Z,76.69
2023-05-13T18:18:20.410Z,77.19
2023-05-13T18:22:23.383Z,77.65
2023-05-13T18:26:24.969Z,78.48
2023-05-13T18:30:26.537Z,78.14
2023-05-13T18:34:28.136Z,78.95
2023-05-13T18:38:31.013Z,79.29
2023-05-13T18:42:33.066Z,79.82
2023-05-13T18:46:34.665Z,79.87
2023-05-13T18:50:36.221Z,80.05
2023-05-13T18:54:39.095Z,79.70
2023-05-13T18:58:40.641Z,80.31
2023-05-13T19:02:42.351Z,80.82
2023-05-13T19:06:44.127Z,80.73
2023-05-13T19:10:47.012Z,80.56
2023-05-13T19:14:48.543Z,80.92
2023-05-13T19:18:50.326Z,81.26
2023-05-13T19:22:51.969Z,82.02
2023-05-13T19:26:54.982Z,81.98
2023-05-13T19:30:56.820Z,82.40
2023-05-13T19:34:58.353Z,82.45
2023-05-13T19:38:59.907Z,82.63
2023-05-13T19:43:02.782Z,82.91
2023-05-13T19:47:04.501Z,82.76
2023-05-13T19:51:06.072Z,82.69
2023-05-13T19:55:08.649Z,83.19
2023-05-13T19:59:11.590Z,82.84
2023-05-13T20:03:13.648Z,83.13
2023-05-13T20:07:15.320Z,82.92
2023-05-13T20:11:16.910Z,82.80
2023-05-13T20:15:19.899Z,83.29
2023-05-13T20:19:21.483Z,83.57
2023-05-13T20:23:23.146Z,83.19
2023-05-13T20:27:24.738Z,83.21
2023-05-13T20:31:27.706Z,83.90
2023-05-13T20:35:29.254Z,83.80
2023-05-13T20:39:30.848Z,83.36
2023-05-13T20:43:34.181Z,83.41
2023-05-13T20:47:37.166Z,84.02
2023-05-13T20:51:38.989Z,83.98
2023-05-13T20:55:40.579Z,83.90
2023-05-13T20:59:42.095Z,84.58
2023-05-13T21:03:44.996Z,84.56
2023-05-13T21:07:46.537Z,84.36
2023-05-13T21:11:48.102Z,84.71
2023-05-13T21:15:49.693Z,84.70
2023-05-13T21:19:52.969Z,84.28
2023-05-13T21:23:54.320Z,84.54
2023-05-13T21:27:55.842Z,84.93
2023-05-13T21:31:57.673Z,85.52
2023-05-13T21:36:00.638Z,85.13
2023-05-13T21:40:02.317Z,85.19
2023-05-13T21:44:03.980Z,85.33
2023-05-13T21:48:06.526Z,85.58
2023-05-13T21:52:09.563Z,85.09
2023-05-13T21:56:11.100Z,85.96
2023-05-13T22:00:13.659Z,86.12
2023-05-13T22:04:15.159Z,86.41
2023-05-13T22:08:18.074Z,87.27
2023-05-13T22:12:19.601Z,87.67
2023-05-13T22:16:21.232Z,88.35
2023-05-13T22:20:23.676Z,87.90
2023-05-13T22:24:26.801Z,87.92
2023-05-13T22:28:28.429Z,88.52
2023-05-13T22:32:30.003Z,88.97
2023-05-13T22:36:31.614Z,89.13
2023-05-13T22:40:34.539Z,89.50
2023-05-13T22:44:36.239Z,90.45
2023-05-13T22:48:37.855Z,91.27
2023-05-13T22:52:39.513Z,91.39
2023-05-13T22:56:42.483Z,91.90
2023-05-13T23:00:44.180Z,91.50
2023-05-13T23:04:45.725Z,92.32
2023-05-13T23:08:47.358Z,93.56
2023-05-13T23:12:50.391Z,94.75
2023-05-13T23:16:51.902Z,94.72
2023-05-13T23:20:54.369Z,94.19
2023-05-13T23:24:55.901Z,95.23
2023-05-13T23:28:58.766Z,95.47
2023-05-13T23:33:00.338Z,97.56
2023-05-13T23:37:01.878Z,96.87
2023-05-13T23:41:03.428Z,95.63
2023-05-13T23:45:07.590Z,95.54
2023-05-13T23:49:09.106Z,95.01
2023-05-13T23:53:10.630Z,95.72
2023-05-13T23:57:12.199Z,94.59
